Terminal Aerodrome Forecast
Issued by NWS

Home | Current Version | Previous Version | Text Only | Print | Product List | Glossary On
Versions: 1 2 3 4 5 6 7 8 9 10 11 12 13 14 15
000
FTUS46 KSEW 300500
TAFBLI
TAF
KBLI 300531Z 3006/3106 17004KT P6SM SCT040 BKN060
     FM301200 17006KT P6SM VCSH SCT014 BKN020 OVC050
      TEMPO 3014/3018 6SM -SHRA BR BKN014 OVC020
     FM302100 17010KT P6SM SCT040 BKN060=

USA.gov is the U.S. government's official web portal to all federal, state and local government web resources and services.